sensor_id;sensor_type;location;lat;lon;timestamp;pressure;altitude;pressure_sealevel;temperature;humidity
23473;BME280;11909;52.516;13.564;2023-05-29T00:00:53;101416.50;;;14.70;61.76
23473;BME280;11909;52.516;13.564;2023-05-29T00:03:22;101407.38;;;14.69;61.77
23473;BME280;11909;52.516;13.564;2023-05-29T00:05:50;101408.56;;;14.63;61.89
23473;BME280;11909;52.516;13.564;2023-05-29T00:08:19;101409.97;;;14.60;62.58
23473;BME280;11909;52.516;13.564;2023-05-29T00:10:47;101406.38;;;14.60;62.56
23473;BME280;11909;52.516;13.564;2023-05-29T00:13:15;101402.25;;;14.57;61.94
23473;BME280;11909;52.516;13.564;2023-05-29T00:15:43;101410.88;;;14.51;62.34
23473;BME280;11909;52.516;13.564;2023-05-29T00:18:11;101400.41;;;14.47;62.38
23473;BME280;11909;52.516;13.564;2023-05-29T00:20:40;101410.41;;;14.43;62.90
23473;BME280;11909;52.516;13.564;2023-05-29T00:23:08;101411.56;;;14.37;62.75
23473;BME280;11909;52.516;13.564;2023-05-29T00:25:36;101410.19;;;14.34;63.13
23473;BME280;11909;52.516;13.564;2023-05-29T00:28:04;101407.78;;;14.28;63.27
23473;BME280;11909;52.516;13.564;2023-05-29T00:30:33;101407.75;;;14.33;63.25
23473;BME280;11909;52.516;13.564;2023-05-29T00:33:01;101410.25;;;14.29;62.98
23473;BME280;11909;52.516;13.564;2023-05-29T00:35:29;101415.25;;;14.27;62.63
23473;BME280;11909;52.516;13.564;2023-05-29T00:37:58;101412.19;;;14.29;62.67
23473;BME280;11909;52.516;13.564;2023-05-29T00:40:26;101399.59;;;14.17;63.03
23473;BME280;11909;52.516;13.564;2023-05-29T00:42:54;101406.19;;;14.22;63.16
23473;BME280;11909;52.516;13.564;2023-05-29T00:45:22;101407.34;;;14.15;62.93
23473;BME280;11909;52.516;13.564;2023-05-29T00:47:50;101402.44;;;14.07;62.98
23473;BME280;11909;52.516;13.564;2023-05-29T00:50:20;101409.63;;;14.03;63.14
23473;BME280;11909;52.516;13.564;2023-05-29T00:52:50;101413.59;;;13.91;63.42
23473;BME280;11909;52.516;13.564;2023-05-29T00:55:20;101404.25;;;13.82;64.09
23473;BME280;11909;52.516;13.564;2023-05-29T00:57:48;101401.53;;;13.77;64.41
23473;BME280;11909;52.516;13.564;2023-05-29T01:00:17;101403.19;;;13.78;64.29
23473;BME280;11909;52.516;13.564;2023-05-29T01:02:47;101404.88;;;13.74;64.27
23473;BME280;11909;52.516;13.564;2023-05-29T01:05:15;101411.00;;;13.66;64.09
23473;BME280;11909;52.516;13.564;2023-05-29T01:07:42;101410.47;;;13.64;64.07
23473;BME280;11909;52.516;13.564;2023-05-29T01:10:11;101411.28;;;13.64;64.29
23473;BME280;11909;52.516;13.564;2023-05-29T01:12:45;101406.28;;;13.66;63.86
23473;BME280;11909;52.516;13.564;2023-05-29T01:15:24;101406.59;;;13.65;64.03
23473;BME280;11909;52.516;13.564;2023-05-29T01:18:12;101412.38;;;13.63;63.98
23473;BME280;11909;52.516;13.564;2023-05-29T01:20:50;101411.81;;;13.66;63.87
23473;BME280;11909;52.516;13.564;2023-05-29T01:23:37;101412.34;;;13.68;63.62
23473;BME280;11909;52.516;13.564;2023-05-29T01:26:21;101406.53;;;13.75;63.22
23473;BME280;11909;52.516;13.564;2023-05-29T01:28:56;101413.41;;;13.72;63.08
23473;BME280;11909;52.516;13.564;2023-05-29T01:31:26;101420.09;;;13.66;63.00
23473;BME280;11909;52.516;13.564;2023-05-29T01:33:58;101419.56;;;13.64;63.31
23473;BME280;11909;52.516;13.564;2023-05-29T01:36:27;101413.47;;;13.67;63.19
23473;BME280;11909;52.516;13.564;2023-05-29T01:38:57;101415.66;;;13.70;63.34
23473;BME280;11909;52.516;13.564;2023-05-29T01:41:25;101425.03;;;13.74;62.72
23473;BME280;11909;52.516;13.564;2023-05-29T01:43:55;101411.47;;;13.78;62.37
23473;BME280;11909;52.516;13.564;2023-05-29T01:46:24;101418.34;;;13.81;62.15
23473;BME280;11909;52.516;13.564;2023-05-29T01:48:53;101425.50;;;13.82;62.09
23473;BME280;11909;52.516;13.564;2023-05-29T01:51:21;101424.69;;;13.81;62.04
23473;BME280;11909;52.516;13.564;2023-05-29T01:53:49;101422.75;;;13.82;61.84
23473;BME280;11909;52.516;13.564;2023-05-29T01:56:18;101423.06;;;13.75;62.03
23473;BME280;11909;52.516;13.564;2023-05-29T01:58:46;101427.78;;;13.74;61.77
23473;BME280;11909;52.516;13.564;2023-05-29T02:01:15;101422.50;;;13.78;61.82
23473;BME280;11909;52.516;13.564;2023-05-29T02:03:43;101426.63;;;13.81;61.95
23473;BME280;11909;52.516;13.564;2023-05-29T02:06:12;101435.22;;;13.74;61.96
23473;BME280;11909;52.516;13.564;2023-05-29T02:08:39;101435.78;;;13.71;62.01
23473;BME280;11909;52.516;13.564;2023-05-29T02:11:08;101427.78;;;13.74;62.09
23473;BME280;11909;52.516;13.564;2023-05-29T02:13:37;101433.31;;;13.69;62.10
23473;BME280;11909;52.516;13.564;2023-05-29T02:16:05;101436.06;;;13.69;62.10
23473;BME280;11909;52.516;13.564;2023-05-29T02:18:35;101433.88;;;13.66;61.94
23473;BME280;11909;52.516;13.564;2023-05-29T02:21:03;101429.22;;;13.61;62.03
23473;BME280;11909;52.516;13.564;2023-05-29T02:23:31;101435.28;;;13.64;62.74
23473;BME280;11909;52.516;13.564;2023-05-29T02:25:58;101431.41;;;13.59;63.50
23473;BME280;11909;52.516;13.564;2023-05-29T02:28:26;101427.09;;;13.48;64.02
23473;BME280;11909;52.516;13.564;2023-05-29T02:30:54;101424.91;;;13.45;64.49
23473;BME280;11909;52.516;13.564;2023-05-29T02:33:23;101426.53;;;13.46;64.77
23473;BME280;11909;52.516;13.564;2023-05-29T02:35:52;101424.06;;;13.39;64.73
23473;BME280;11909;52.516;13.564;2023-05-29T02:38:20;101424.34;;;13.32;65.19
23473;BME280;11909;52.516;13.564;2023-05-29T02:40:48;101429.63;;;13.29;65.42
23473;BME280;11909;52.516;13.564;2023-05-29T02:43:17;101426.06;;;13.23;65.52
23473;BME280;11909;52.516;13.564;2023-05-29T02:45:45;101431.03;;;13.21;65.87
23473;BME280;11909;52.516;13.564;2023-05-29T02:48:13;101426.91;;;13.18;66.14
23473;BME280;11909;52.516;13.564;2023-05-29T02:50:41;101428.53;;;13.19;65.41
23473;BME280;11909;52.516;13.564;2023-05-29T02:53:10;101434.06;;;13.19;64.81
23473;BME280;11909;52.516;13.564;2023-05-29T02:55:38;101431.31;;;13.19;64.16
23473;BME280;11909;52.516;13.564;2023-05-29T02:58:06;101430.75;;;13.23;64.22
23473;BME280;11909;52.516;13.564;2023-05-29T03:00:34;101442.31;;;13.25;63.93
23473;BME280;11909;52.516;13.564;2023-05-29T03:03:03;101433.50;;;13.28;64.08
23473;BME280;11909;52.516;13.564;2023-05-29T03:05:31;101440.38;;;13.25;64.04
23473;BME280;11909;52.516;13.564;2023-05-29T03:07:59;101438.19;;;13.22;64.30
23473;BME280;11909;52.516;13.564;2023-05-29T03:10:29;101454.44;;;13.24;64.34
23473;BME280;11909;52.516;13.564;2023-05-29T03:12:57;101440.66;;;13.24;64.29
23473;BME280;11909;52.516;13.564;2023-05-29T03:15:25;101447.84;;;13.19;64.54
23473;BME280;11909;52.516;13.564;2023-05-29T03:17:52;101448.13;;;13.18;64.20
23473;BME280;11909;52.516;13.564;2023-05-29T03:20:21;101453.66;;;13.13;64.44
23473;BME280;11909;52.516;13.564;2023-05-29T03:22:48;101444.84;;;13.16;64.44
23473;BME280;11909;52.516;13.564;2023-05-29T03:25:17;101444.84;;;13.16;64.62
23473;BME280;11909;52.516;13.564;2023-05-29T03:27:47;101448.41;;;13.16;64.84
23473;BME280;11909;52.516;13.564;2023-05-29T03:30:16;101442.91;;;13.16;64.39
23473;BME280;11909;52.516;13.564;2023-05-29T03:32:43;101446.47;;;13.12;64.53
23473;BME280;11909;52.516;13.564;2023-05-29T03:35:11;101446.47;;;13.12;64.72
23473;BME280;11909;52.516;13.564;2023-05-29T03:37:39;101453.41;;;13.04;65.00
23473;BME280;11909;52.516;13.564;2023-05-29T03:40:08;101442.41;;;13.04;65.01
23473;BME280;11909;52.516;13.564;2023-05-29T03:42:37;101457.56;;;13.01;64.95
23473;BME280;11909;52.516;13.564;2023-05-29T03:45:08;101447.91;;;13.04;64.83
23473;BME280;11909;52.516;13.564;2023-05-29T03:47:36;101448.69;;;13.10;64.80
23473;BME280;11909;52.516;13.564;2023-05-29T03:50:04;101450.66;;;13.09;65.23
23473;BME280;11909;52.516;13.564;2023-05-29T03:52:34;101457.53;;;13.07;65.30
23473;BME280;11909;52.516;13.564;2023-05-29T03:55:01;101459.16;;;13.13;65.09
23473;BME280;11909;52.516;13.564;2023-05-29T03:57:29;101467.13;;;13.19;64.76
23473;BME280;11909;52.516;13.564;2023-05-29T03:59:57;101465.78;;;13.12;65.01
23473;BME280;11909;52.516;13.564;2023-05-29T04:02:27;101462.47;;;13.15;65.00
23473;BME280;11909;52.516;13.564;2023-05-29T04:04:55;101467.72;;;13.11;65.33
23473;BME280;11909;52.516;13.564;2023-05-29T04:07:23;101461.13;;;13.07;65.62
23473;BME280;11909;52.516;13.564;2023-05-29T04:09:51;101462.47;;;13.10;65.58
23473;BME280;11909;52.516;13.564;2023-05-29T04:12:19;101460.81;;;13.14;65.43
23473;BME280;11909;52.516;13.564;2023-05-29T04:14:47;101461.34;;;13.21;65.25
23473;BME280;11909;52.516;13.564;2023-05-29T04:17:14;101469.09;;;13.19;65.50
23473;BME280;11909;52.516;13.564;2023-05-29T04:19:44;101461.91;;;13.23;65.64
23473;BME280;11909;52.516;13.564;2023-05-29T04:22:12;101454.75;;;13.17;66.13
23473;BME280;11909;52.516;13.564;2023-05-29T04:24:40;101466.31;;;13.19;66.49
23473;BME280;11909;52.516;13.564;2023-05-29T04:27:08;101464.94;;;13.16;66.71
23473;BME280;11909;52.516;13.564;2023-05-29T04:29:39;101462.72;;;13.24;65.58
23473;BME280;11909;52.516;13.564;2023-05-29T04:32:09;101469.31;;;13.33;65.25
23473;BME280;11909;52.516;13.564;2023-05-29T04:34:38;101468.72;;;13.41;64.68
23473;BME280;11909;52.516;13.564;2023-05-29T04:37:07;101469.50;;;13.57;64.18
23473;BME280;11909;52.516;13.564;2023-05-29T04:39:35;101476.13;;;13.56;64.38
23473;BME280;11909;52.516;13.564;2023-05-29T04:42:03;101475.00;;;13.57;64.05
23473;BME280;11909;52.516;13.564;2023-05-29T04:44:32;101475.00;;;13.57;64.42
23473;BME280;11909;52.516;13.564;2023-05-29T04:46:59;101472.78;;;13.65;63.93
23473;BME280;11909;52.516;13.564;2023-05-29T04:49:30;101472.50;;;13.66;64.05
23473;BME280;11909;52.516;13.564;2023-05-29T04:51:58;101479.91;;;13.71;63.54
23473;BME280;11909;52.516;13.564;2023-05-29T04:54:29;101473.25;;;13.77;63.93
23473;BME280;11909;52.516;13.564;2023-05-29T04:56:56;101480.16;;;13.80;63.59
23473;BME280;11909;52.516;13.564;2023-05-29T04:59:24;101481.19;;;13.89;63.22
23473;BME280;11909;52.516;13.564;2023-05-29T05:01:53;101477.06;;;13.91;62.82
23473;BME280;11909;52.516;13.564;2023-05-29T05:04:21;101483.09;;;13.94;62.69
23473;BME280;11909;52.516;13.564;2023-05-29T05:06:49;101480.03;;;14.00;62.74
23473;BME280;11909;52.516;13.564;2023-05-29T05:09:17;101481.41;;;13.98;62.64
23473;BME280;11909;52.516;13.564;2023-05-29T05:11:47;101476.75;;;13.98;63.01
23473;BME280;11909;52.516;13.564;2023-05-29T05:14:15;101476.16;;;14.01;63.30
23473;BME280;11909;52.516;13.564;2023-05-29T05:16:43;101480.56;;;14.02;62.99
23473;BME280;11909;52.516;13.564;2023-05-29T05:19:11;101477.19;;;14.11;63.38
23473;BME280;11909;52.516;13.564;2023-05-29T05:21:38;101483.78;;;14.15;62.63
23473;BME280;11909;52.516;13.564;2023-05-29T05:24:06;101488.19;;;14.21;62.77
23473;BME280;11909;52.516;13.564;2023-05-29T05:26:34;101487.34;;;14.20;63.02
23473;BME280;11909;52.516;13.564;2023-05-29T05:29:04;101486.56;;;14.15;63.04
23473;BME280;11909;52.516;13.564;2023-05-29T05:31:32;101490.91;;;14.26;62.60
23473;BME280;11909;52.516;13.564;2023-05-29T05:33:59;101496.91;;;14.33;61.82
23473;BME280;11909;52.516;13.564;2023-05-29T05:36:30;101488.94;;;14.27;62.37
23473;BME280;11909;52.516;13.564;2023-05-29T05:38:59;101486.44;;;14.30;62.34
23473;BME280;11909;52.516;13.564;2023-05-29T05:41:28;101484.72;;;14.40;62.07
23473;BME280;11909;52.516;13.564;2023-05-29T05:43:56;101491.59;;;14.42;62.14
23473;BME280;11909;52.516;13.564;2023-05-29T05:46:25;101489.63;;;14.48;62.03
23473;BME280;11909;52.516;13.564;2023-05-29T05:48:53;101487.06;;;14.57;61.62
23473;BME280;11909;52.516;13.564;2023-05-29T05:51:24;101492.50;;;14.67;61.47
23473;BME280;11909;52.516;13.564;2023-05-29T05:53:52;101501.28;;;14.74;61.86
23473;BME280;11909;52.516;13.564;2023-05-29T05:56:20;101505.69;;;14.81;61.13
23473;BME280;11909;52.516;13.564;2023-05-29T05:58:48;101507.56;;;14.85;61.25
23473;BME280;11909;52.516;13.564;2023-05-29T06:01:16;101507.28;;;14.87;61.08
23473;BME280;11909;52.516;13.564;2023-05-29T06:03:47;101509.44;;;14.90;60.81
23473;BME280;11909;52.516;13.564;2023-05-29T06:06:15;101511.09;;;14.91;60.65
23473;BME280;11909;52.516;13.564;2023-05-29T06:08:46;101507.22;;;14.92;61.26
23473;BME280;11909;52.516;13.564;2023-05-29T06:11:14;101506.59;;;15.00;61.10
23473;BME280;11909;52.516;13.564;2023-05-29T06:13:42;101519.78;;;15.09;60.65
23473;BME280;11909;52.516;13.564;2023-05-29T06:16:10;101521.66;;;15.13;60.22
23473;BME280;11909;52.516;13.564;2023-05-29T06:18:38;101520.78;;;15.18;60.19
23473;BME280;11909;52.516;13.564;2023-05-29T06:21:08;101521.28;;;15.25;59.23
23473;BME280;11909;52.516;13.564;2023-05-29T06:23:36;101530.03;;;15.32;58.79
23473;BME280;11909;52.516;13.564;2023-05-29T06:26:04;101527.50;;;15.36;58.71
23473;BME280;11909;52.516;13.564;2023-05-29T06:28:32;101535.97;;;15.45;59.03
23473;BME280;11909;52.516;13.564;2023-05-29T06:31:00;101529.47;;;15.55;58.44
23473;BME280;11909;52.516;13.564;2023-05-29T06:33:28;101536.31;;;15.62;57.66
23473;BME280;11909;52.516;13.564;2023-05-29T06:35:57;101535.16;;;15.69;56.98
23473;BME280;11909;52.516;13.564;2023-05-29T06:38:30;101540.09;;;15.72;56.74
23473;BME280;11909;52.516;13.564;2023-05-29T06:40:58;101545.03;;;15.75;56.00
23473;BME280;11909;52.516;13.564;2023-05-29T06:43:27;101542.63;;;15.87;55.77
23473;BME280;11909;52.516;13.564;2023-05-29T06:45:55;101552.06;;;15.91;55.51
23473;BME280;11909;52.516;13.564;2023-05-29T06:48:24;101550.53;;;15.99;54.97
23473;BME280;11909;52.516;13.564;2023-05-29T06:50:51;101558.47;;;16.06;54.01
23473;BME280;11909;52.516;13.564;2023-05-29T06:53:19;101558.72;;;16.10;53.40
23473;BME280;11909;52.516;13.564;2023-05-29T06:55:48;101550.63;;;16.13;52.89
23473;BME280;11909;52.516;13.564;2023-05-29T06:58:17;101555.78;;;16.20;53.51
23473;BME280;11909;52.516;13.564;2023-05-29T07:00:45;101558.72;;;16.29;53.52
23473;BME280;11909;52.516;13.564;2023-05-29T07:03:12;101565.81;;;16.35;52.75
23473;BME280;11909;52.516;13.564;2023-05-29T07:05:41;101567.47;;;16.36;53.02
23473;BME280;11909;52.516;13.564;2023-05-29T07:08:09;101565.53;;;16.37;52.00
23473;BME280;11909;52.516;13.564;2023-05-29T07:10:37;101574.38;;;16.39;51.90
23473;BME280;11909;52.516;13.564;2023-05-29T07:13:06;101568.75;;;16.44;52.11
23473;BME280;11909;52.516;13.564;2023-05-29T07:15:34;101575.03;;;16.49;51.68
23473;BME280;11909;52.516;13.564;2023-05-29T07:18:02;101573.00;;;16.55;51.71
23473;BME280;11909;52.516;13.564;2023-05-29T07:20:31;101568.75;;;16.63;52.39
23473;BME280;11909;52.516;13.564;2023-05-29T07:22:59;101571.84;;;16.75;53.15
23473;BME280;11909;52.516;13.564;2023-05-29T07:25:27;101577.44;;;16.89;51.82
23473;BME280;11909;52.516;13.564;2023-05-29T07:27:55;101575.13;;;16.97;51.60
23473;BME280;11909;52.516;13.564;2023-05-29T07:30:31;101576.69;;;17.03;50.94
23473;BME280;11909;52.516;13.564;2023-05-29T07:33:00;101572.09;;;17.12;51.70
23473;BME280;11909;52.516;13.564;2023-05-29T07:35:27;101567.56;;;17.16;51.41
23473;BME280;11909;52.516;13.564;2023-05-29T07:37:55;101574.69;;;17.23;50.95
23473;BME280;11909;52.516;13.564;2023-05-29T07:40:23;101581.03;;;17.23;50.80
23473;BME280;11909;52.516;13.564;2023-05-29T07:42:51;101577.88;;;17.30;51.21
23473;BME280;11909;52.516;13.564;2023-05-29T07:45:19;101584.34;;;17.39;50.33
23473;BME280;11909;52.516;13.564;2023-05-29T07:47:48;101589.41;;;17.51;49.82
23473;BME280;11909;52.516;13.564;2023-05-29T07:50:17;101592.78;;;17.62;48.85
23473;BME280;11909;52.516;13.564;2023-05-29T07:52:45;101590.34;;;17.60;48.00
23473;BME280;11909;52.516;13.564;2023-05-29T07:55:13;101596.41;;;17.62;48.90
23473;BME280;11909;52.516;13.564;2023-05-29T07:57:40;101598.28;;;17.67;49.41
23473;BME280;11909;52.516;13.564;2023-05-29T08:00:09;101605.66;;;17.72;48.82
23473;BME280;11909;52.516;13.564;2023-05-29T08:02:40;101606.59;;;17.81;48.29
23473;BME280;11909;52.516;13.564;2023-05-29T08:05:10;101605.13;;;17.84;47.85
23473;BME280;11909;52.516;13.564;2023-05-29T08:07:39;101592.91;;;17.85;48.14
23473;BME280;11909;52.516;13.564;2023-05-29T08:10:08;101596.50;;;17.85;48.61
23473;BME280;11909;52.516;13.564;2023-05-29T08:12:36;101594.47;;;17.77;49.33
23473;BME280;11909;52.516;13.564;2023-05-29T08:15:04;101596.41;;;17.76;48.98
23473;BME280;11909;52.516;13.564;2023-05-29T08:17:32;101600.81;;;17.77;50.05
23473;BME280;11909;52.516;13.564;2023-05-29T08:20:00;101603.59;;;17.91;48.91
23473;BME280;11909;52.516;13.564;2023-05-29T08:22:33;101597.53;;;18.03;48.67
23473;BME280;11909;52.516;13.564;2023-05-29T08:25:01;101606.56;;;18.23;47.28
23473;BME280;11909;52.516;13.564;2023-05-29T08:27:29;101596.69;;;18.31;47.06
23473;BME280;11909;52.516;13.564;2023-05-29T08:29:57;101600.25;;;18.45;46.71
23473;BME280;11909;52.516;13.564;2023-05-29T08:32:25;101595.25;;;18.56;47.09
23473;BME280;11909;52.516;13.564;2023-05-29T08:34:52;101584.09;;;18.70;47.82
23473;BME280;11909;52.516;13.564;2023-05-29T08:37:20;101593.50;;;18.83;45.23
23473;BME280;11909;52.516;13.564;2023-05-29T08:39:50;101589.22;;;19.00;45.88
23473;BME280;11909;52.516;13.564;2023-05-29T08:42:21;101589.28;;;19.09;45.86
23473;BME280;11909;52.516;13.564;2023-05-29T08:44:52;101582.81;;;19.22;45.73
23473;BME280;11909;52.516;13.564;2023-05-29T08:47:26;101573.88;;;19.34;45.55
23473;BME280;11909;52.516;13.564;2023-05-29T08:49:54;101587.47;;;19.44;45.55
23473;BME280;11909;52.516;13.564;2023-05-29T08:52:24;101585.88;;;19.52;44.84
23473;BME280;11909;52.516;13.564;2023-05-29T08:54:54;101591.31;;;19.57;44.34
23473;BME280;11909;52.516;13.564;2023-05-29T08:57:23;101595.59;;;19.63;43.16
23473;BME280;11909;52.516;13.564;2023-05-29T08:59:52;101595.94;;;19.71;43.70
23473;BME280;11909;52.516;13.564;2023-05-29T09:02:20;101598.13;;;19.83;43.20
23473;BME280;11909;52.516;13.564;2023-05-29T09:04:48;101596.19;;;19.92;43.81
23473;BME280;11909;52.516;13.564;2023-05-29T09:07:16;101603.78;;;20.00;42.13
23473;BME280;11909;52.516;13.564;2023-05-29T09:09:45;101593.94;;;20.12;43.45
23473;BME280;11909;52.516;13.564;2023-05-29T09:12:14;101596.56;;;20.17;42.65
23473;BME280;11909;52.516;13.564;2023-05-29T09:14:44;101603.97;;;20.22;42.46
23473;BME280;11909;52.516;13.564;2023-05-29T09:17:13;101594.28;;;20.28;41.94
23473;BME280;11909;52.516;13.564;2023-05-29T09:19:41;101591.03;;;20.34;42.16
23473;BME280;11909;52.516;13.564;2023-05-29T09:22:11;101590.72;;;20.45;42.81
23473;BME280;11909;52.516;13.564;2023-05-29T09:24:43;101595.94;;;20.55;43.31
23473;BME280;11909;52.516;13.564;2023-05-29T09:27:15;101591.53;;;20.63;42.30
23473;BME280;11909;52.516;13.564;2023-05-29T09:29:44;101594.78;;;20.65;43.15
23473;BME280;11909;52.516;13.564;2023-05-29T09:32:14;101601.03;;;20.62;42.09
23473;BME280;11909;52.516;13.564;2023-05-29T09:34:44;101607.28;;;20.59;41.85
23473;BME280;11909;52.516;13.564;2023-05-29T09:37:12;101613.66;;;20.68;42.55
23473;BME280;11909;52.516;13.564;2023-05-29T09:39:45;101608.56;;;20.70;42.92
23473;BME280;11909;52.516;13.564;2023-05-29T09:42:15;101614.34;;;20.83;42.21
23473;BME280;11909;52.516;13.564;2023-05-29T09:44:45;101610.53;;;20.87;42.72
23473;BME280;11909;52.516;13.564;2023-05-29T09:47:14;101610.53;;;20.96;42.58
23473;BME280;11909;52.516;13.564;2023-05-29T09:49:43;101612.81;;;21.03;40.34
23473;BME280;11909;52.516;13.564;2023-05-29T09:52:12;101605.06;;;21.26;41.67
23473;BME280;11909;52.516;13.564;2023-05-29T09:54:43;101610.66;;;21.17;40.87
23473;BME280;11909;52.516;13.564;2023-05-29T09:57:13;101606.53;;;21.24;41.53
23473;BME280;11909;52.516;13.564;2023-05-29T09:59:44;101612.09;;;21.32;40.51
23473;BME280;11909;52.516;13.564;2023-05-29T10:02:14;101593.94;;;21.09;40.70
23473;BME280;11909;52.516;13.564;2023-05-29T10:04:43;101588.41;;;20.91;41.48
23473;BME280;11909;52.516;13.564;2023-05-29T10:07:15;101586.59;;;20.77;42.61
23473;BME280;11909;52.516;13.564;2023-05-29T10:09:49;101582.00;;;20.90;43.07
23473;BME280;11909;52.516;13.564;2023-05-29T10:12:20;101574.91;;;21.11;43.77
23473;BME280;11909;52.516;13.564;2023-05-29T10:14:54;101583.22;;;21.28;42.72
23473;BME280;11909;52.516;13.564;2023-05-29T10:17:26;101587.50;;;21.17;41.05
23473;BME280;11909;52.516;13.564;2023-05-29T10:19:57;101593.00;;;20.96;39.61
23473;BME280;11909;52.516;13.564;2023-05-29T10:22:31;101599.53;;;20.73;40.39
23473;BME280;11909;52.516;13.564;2023-05-29T10:24:59;101601.53;;;20.73;41.05
23473;BME280;11909;52.516;13.564;2023-05-29T10:27:27;101587.59;;;20.90;43.56
23473;BME280;11909;52.516;13.564;2023-05-29T10:29:59;101585.06;;;21.15;40.50
23473;BME280;11909;52.516;13.564;2023-05-29T10:32:33;101595.59;;;21.10;41.02
23473;BME280;11909;52.516;13.564;2023-05-29T10:35:08;101593.78;;;21.05;41.28
23473;BME280;11909;52.516;13.564;2023-05-29T10:37:42;101593.81;;;20.87;40.33
23473;BME280;11909;52.516;13.564;2023-05-29T10:40:11;101595.78;;;20.69;40.43
23473;BME280;11909;52.516;13.564;2023-05-29T10:42:41;101594.00;;;20.65;41.08
23473;BME280;11909;52.516;13.564;2023-05-29T10:45:49;101572.47;;;20.74;42.62
23473;BME280;11909;52.516;13.564;2023-05-29T10:48:38;101571.94;;;21.07;41.62
23473;BME280;11909;52.516;13.564;2023-05-29T10:51:08;101583.09;;;21.07;40.33
23473;BME280;11909;52.516;13.564;2023-05-29T10:53:36;101588.19;;;21.14;39.67
23473;BME280;11909;52.516;13.564;2023-05-29T10:56:08;101582.56;;;21.31;40.38
23473;BME280;11909;52.516;13.564;2023-05-29T10:58:39;101578.34;;;21.16;38.77
23473;BME280;11909;52.516;13.564;2023-05-29T11:01:08;101584.25;;;21.06;38.93
23473;BME280;11909;52.516;13.564;2023-05-29T11:04:28;101586.44;;;20.91;38.13
23473;BME280;11909;52.516;13.564;2023-05-29T11:06:58;101576.22;;;21.04;40.11
23473;BME280;11909;52.516;13.564;2023-05-29T11:09:28;101580.78;;;21.09;38.84
23473;BME280;11909;52.516;13.564;2023-05-29T11:12:14;101587.41;;;21.04;37.92
23473;BME280;11909;52.516;13.564;2023-05-29T11:14:54;101577.81;;;21.23;38.97
23473;BME280;11909;52.516;13.564;2023-05-29T11:17:30;101578.69;;;21.45;39.47
23473;BME280;11909;52.516;13.564;2023-05-29T11:20:03;101576.97;;;21.70;39.77
23473;BME280;11909;52.516;13.564;2023-05-29T11:22:49;101572.25;;;21.92;39.58
23473;BME280;11909;52.516;13.564;2023-05-29T11:25:21;101568.19;;;22.11;39.22
23473;BME280;11909;52.516;13.564;2023-05-29T11:27:50;101571.66;;;22.29;38.05
23473;BME280;11909;52.516;13.564;2023-05-29T11:30:18;101573.25;;;22.39;37.90
23473;BME280;11909;52.516;13.564;2023-05-29T11:32:47;101568.94;;;22.41;37.71
23473;BME280;11909;52.516;13.564;2023-05-29T11:35:19;101564.72;;;22.56;36.65
23473;BME280;11909;52.516;13.564;2023-05-29T11:37:49;101568.91;;;22.50;34.94
23473;BME280;11909;52.516;13.564;2023-05-29T11:40:18;101560.41;;;22.59;34.22
23473;BME280;11909;52.516;13.564;2023-05-29T11:42:46;101552.94;;;22.51;36.21
23473;BME280;11909;52.516;13.564;2023-05-29T11:45:17;101565.78;;;22.43;36.43
23473;BME280;11909;52.516;13.564;2023-05-29T11:47:53;101570.72;;;22.25;36.35
23473;BME280;11909;52.516;13.564;2023-05-29T11:50:24;101575.94;;;22.05;35.69
23473;BME280;11909;52.516;13.564;2023-05-29T11:52:51;101580.16;;;21.90;36.23
23473;BME280;11909;52.516;13.564;2023-05-29T11:55:20;101567.59;;;21.75;37.41
23473;BME280;11909;52.516;13.564;2023-05-29T11:57:49;101554.00;;;21.95;39.24
23473;BME280;11909;52.516;13.564;2023-05-29T12:00:18;101560.56;;;22.20;38.16
23473;BME280;11909;52.516;13.564;2023-05-29T12:02:46;101557.75;;;22.41;36.83
23473;BME280;11909;52.516;13.564;2023-05-29T12:05:17;101544.94;;;22.61;37.50
23473;BME280;11909;52.516;13.564;2023-05-29T12:07:51;101555.50;;;22.77;36.10
23473;BME280;11909;52.516;13.564;2023-05-29T12:10:20;101545.84;;;22.87;36.80
23473;BME280;11909;52.516;13.564;2023-05-29T12:12:50;101560.41;;;22.92;35.68
23473;BME280;11909;52.516;13.564;2023-05-29T12:15:19;101553.41;;;22.86;36.17
23473;BME280;11909;52.516;13.564;2023-05-29T12:17:49;101563.75;;;22.73;35.57
23473;BME280;11909;52.516;13.564;2023-05-29T12:20:18;101561.25;;;22.59;35.98
23473;BME280;11909;52.516;13.564;2023-05-29T12:22:46;101564.72;;;22.56;36.11
23473;BME280;11909;52.516;13.564;2023-05-29T12:25:16;101565.22;;;22.58;35.02
23473;BME280;11909;52.516;13.564;2023-05-29T12:27:47;101547.88;;;22.65;36.35
23473;BME280;11909;52.516;13.564;2023-05-29T12:30:20;101550.00;;;22.81;36.93
23473;BME280;11909;52.516;13.564;2023-05-29T12:33:00;101546.41;;;22.92;36.70
23473;BME280;11909;52.516;13.564;2023-05-29T12:35:29;101550.28;;;23.00;37.60
23473;BME280;11909;52.516;13.564;2023-05-29T12:37:58;101544.91;;;22.95;37.92
23473;BME280;11909;52.516;13.564;2023-05-29T12:40:28;101551.81;;;22.98;35.66
23473;BME280;11909;52.516;13.564;2023-05-29T12:42:58;101556.34;;;22.90;34.92
23473;BME280;11909;52.516;13.564;2023-05-29T12:45:28;101550.38;;;22.91;34.87
23473;BME280;11909;52.516;13.564;2023-05-29T12:47:58;101557.19;;;23.03;33.00
23473;BME280;11909;52.516;13.564;2023-05-29T12:50:29;101542.44;;;22.94;34.45
23473;BME280;11909;52.516;13.564;2023-05-29T12:52:59;101535.69;;;22.82;36.74